sensor_id;sensor_type;location;lat;lon;timestamp;pressure;altitude;pressure_sealevel;temperature;humidity
57644;BME280;43474;46.510;6.686;2024-01-27T00:01:51;97980.22;;;6.39;100.00
57644;BME280;43474;46.510;6.686;2024-01-27T00:04:17;97923.75;;;6.10;100.00
57644;BME280;43474;46.510;6.686;2024-01-27T00:06:43;97923.06;;;6.16;100.00
57644;BME280;43474;46.510;6.686;2024-01-27T00:09:09;97947.81;;;6.38;100.00
57644;BME280;43474;46.510;6.686;2024-01-27T00:11:36;97935.50;;;6.31;100.00
57644;BME280;43474;46.510;6.686;2024-01-27T00:14:01;97954.41;;;6.34;100.00
57644;BME280;43474;46.510;6.686;2024-01-27T00:16:28;97933.34;;;6.34;100.00
57644;BME280;43474;46.510;6.686;2024-01-27T00:18:54;97923.91;;;6.17;100.00
57644;BME280;43474;46.510;6.686;2024-01-27T00:21:20;97919.88;;;5.98;100.00
57644;BME280;43474;46.510;6.686;2024-01-27T00:23:46;97945.81;;;6.01;100.00
57644;BME280;43474;46.510;6.686;2024-01-27T00:26:13;97913.66;;;5.75;100.00
57644;BME280;43474;46.510;6.686;2024-01-27T00:28:39;97918.91;;;5.66;100.00
57644;BME280;43474;46.510;6.686;2024-01-27T00:31:05;97917.97;;;5.51;100.00
57644;BME280;43474;46.510;6.686;2024-01-27T00:33:31;97921.44;;;5.43;100.00
57644;BME280;43474;46.510;6.686;2024-01-27T00:35:57;97928.66;;;5.41;100.00
57644;BME280;43474;46.510;6.686;2024-01-27T00:38:23;97914.72;;;5.25;100.00
57644;BME280;43474;46.510;6.686;2024-01-27T00:40:52;97936.22;;;5.44;100.00
57644;BME280;43474;46.510;6.686;2024-01-27T00:43:18;97956.59;;;5.51;100.00
57644;BME280;43474;46.510;6.686;2024-01-27T00:45:45;97915.06;;;5.22;100.00
57644;BME280;43474;46.510;6.686;2024-01-27T00:48:14;97909.97;;;5.20;100.00
57644;BME280;43474;46.510;6.686;2024-01-27T00:50:40;97912.59;;;5.20;100.00
57644;BME280;43474;46.510;6.686;2024-01-27T00:53:06;97931.16;;;5.27;100.00
57644;BME280;43474;46.510;6.686;2024-01-27T00:55:35;97933.13;;;5.16;100.00
57644;BME280;43474;46.510;6.686;2024-01-27T00:58:01;97908.84;;;4.98;100.00
57644;BME280;43474;46.510;6.686;2024-01-27T01:00:30;97969.59;;;5.44;100.00
57644;BME280;43474;46.510;6.686;2024-01-27T01:02:56;97913.59;;;5.27;100.00
57644;BME280;43474;46.510;6.686;2024-01-27T01:05:22;97906.06;;;5.08;100.00
57644;BME280;43474;46.510;6.686;2024-01-27T01:07:48;97923.44;;;5.09;100.00
57644;BME280;43474;46.510;6.686;2024-01-27T01:10:17;97922.63;;;5.08;100.00
57644;BME280;43474;46.510;6.686;2024-01-27T01:12:43;97916.38;;;5.01;100.00
57644;BME280;43474;46.510;6.686;2024-01-27T01:15:09;97903.88;;;4.87;100.00
57644;BME280;43474;46.510;6.686;2024-01-27T01:17:38;97902.41;;;4.76;100.00
57644;BME280;43474;46.510;6.686;2024-01-27T01:20:05;97905.53;;;4.72;100.00
57644;BME280;43474;46.510;6.686;2024-01-27T01:22:31;97912.28;;;4.74;100.00
57644;BME280;43474;46.510;6.686;2024-01-27T01:24:57;97929.34;;;4.78;100.00
57644;BME280;43474;46.510;6.686;2024-01-27T01:27:28;97968.44;;;4.98;100.00
57644;BME280;43474;46.510;6.686;2024-01-27T01:29:55;97903.53;;;4.57;100.00
57644;BME280;43474;46.510;6.686;2024-01-27T01:32:20;97923.91;;;4.63;100.00
57644;BME280;43474;46.510;6.686;2024-01-27T01:34:47;97935.06;;;4.65;100.00
57644;BME280;43474;46.510;6.686;2024-01-27T01:37:13;97921.81;;;4.83;100.00
57644;BME280;43474;46.510;6.686;2024-01-27T01:39:39;97926.06;;;4.84;100.00
57644;BME280;43474;46.510;6.686;2024-01-27T01:42:05;97913.06;;;4.66;100.00
57644;BME280;43474;46.510;6.686;2024-01-27T01:44:31;97968.09;;;5.17;100.00
57644;BME280;43474;46.510;6.686;2024-01-27T01:46:57;97927.53;;;4.95;100.00
57644;BME280;43474;46.510;6.686;2024-01-27T01:49:23;97933.81;;;5.02;100.00
57644;BME280;43474;46.510;6.686;2024-01-27T01:51:49;97930.81;;;4.97;100.00
57644;BME280;43474;46.510;6.686;2024-01-27T01:54:16;97934.44;;;4.96;100.00
57644;BME280;43474;46.510;6.686;2024-01-27T01:56:42;97966.16;;;5.27;100.00
57644;BME280;43474;46.510;6.686;2024-01-27T01:59:08;97910.97;;;5.03;100.00
57644;BME280;43474;46.510;6.686;2024-01-27T02:01:34;97919.66;;;5.19;100.00
57644;BME280;43474;46.510;6.686;2024-01-27T02:04:00;97956.44;;;5.44;100.00
57644;BME280;43474;46.510;6.686;2024-01-27T02:06:25;97961.56;;;5.37;100.00
57644;BME280;43474;46.510;6.686;2024-01-27T02:08:52;97901.63;;;5.08;100.00
57644;BME280;43474;46.510;6.686;2024-01-27T02:11:17;97925.75;;;5.20;100.00
57644;BME280;43474;46.510;6.686;2024-01-27T02:13:43;97897.66;;;4.96;100.00
57644;BME280;43474;46.510;6.686;2024-01-27T02:16:09;97945.28;;;5.34;100.00
57644;BME280;43474;46.510;6.686;2024-01-27T02:18:35;97904.53;;;5.22;100.00
57644;BME280;43474;46.510;6.686;2024-01-27T02:21:01;97919.50;;;5.29;100.00
57644;BME280;43474;46.510;6.686;2024-01-27T02:23:27;97949.88;;;5.32;100.00
57644;BME280;43474;46.510;6.686;2024-01-27T02:25:53;97942.66;;;5.09;100.00
57644;BME280;43474;46.510;6.686;2024-01-27T02:28:19;97984.38;;;5.21;100.00
57644;BME280;43474;46.510;6.686;2024-01-27T02:30:45;97911.75;;;4.71;100.00
57644;BME280;43474;46.510;6.686;2024-01-27T02:33:11;97953.47;;;4.90;100.00
57644;BME280;43474;46.510;6.686;2024-01-27T02:35:36;97962.19;;;4.90;100.00
57644;BME280;43474;46.510;6.686;2024-01-27T02:38:03;97950.22;;;4.88;100.00
57644;BME280;43474;46.510;6.686;2024-01-27T02:40:28;97968.59;;;4.96;100.00
57644;BME280;43474;46.510;6.686;2024-01-27T02:42:54;97947.91;;;4.85;100.00
57644;BME280;43474;46.510;6.686;2024-01-27T02:45:20;97946.25;;;4.76;100.00
57644;BME280;43474;46.510;6.686;2024-01-27T02:47:46;97938.84;;;4.63;100.00
57644;BME280;43474;46.510;6.686;2024-01-27T02:50:12;97939.13;;;4.52;100.00
57644;BME280;43474;46.510;6.686;2024-01-27T02:52:38;97905.59;;;4.21;100.00
57644;BME280;43474;46.510;6.686;2024-01-27T02:55:04;97959.97;;;4.45;100.00
57644;BME280;43474;46.510;6.686;2024-01-27T02:57:30;97934.94;;;4.17;100.00
57644;BME280;43474;46.510;6.686;2024-01-27T02:59:55;97977.47;;;4.36;100.00
57644;BME280;43474;46.510;6.686;2024-01-27T03:02:21;97902.34;;;3.85;100.00
57644;BME280;43474;46.510;6.686;2024-01-27T03:04:47;97926.59;;;3.87;100.00
57644;BME280;43474;46.510;6.686;2024-01-27T03:07:13;97943.56;;;4.51;100.00
57644;BME280;43474;46.510;6.686;2024-01-27T03:09:39;97927.16;;;4.57;100.00
57644;BME280;43474;46.510;6.686;2024-01-27T03:12:05;97955.94;;;4.91;100.00
57644;BME280;43474;46.510;6.686;2024-01-27T03:14:31;97989.13;;;5.01;100.00
57644;BME280;43474;46.510;6.686;2024-01-27T03:16:58;97952.44;;;4.66;100.00
57644;BME280;43474;46.510;6.686;2024-01-27T03:19:24;97927.63;;;4.45;100.00
57644;BME280;43474;46.510;6.686;2024-01-27T03:21:50;97959.19;;;4.69;100.00
57644;BME280;43474;46.510;6.686;2024-01-27T03:24:15;97967.78;;;5.04;100.00
57644;BME280;43474;46.510;6.686;2024-01-27T03:26:41;97945.44;;;4.83;100.00
57644;BME280;43474;46.510;6.686;2024-01-27T03:29:07;97954.13;;;4.84;100.00
57644;BME280;43474;46.510;6.686;2024-01-27T03:31:33;97951.50;;;4.84;100.00
57644;BME280;43474;46.510;6.686;2024-01-27T03:34:00;97972.34;;;4.85;100.00
57644;BME280;43474;46.510;6.686;2024-01-27T03:36:26;97973.81;;;4.80;100.00
57644;BME280;43474;46.510;6.686;2024-01-27T03:38:52;97953.75;;;4.54;100.00
57644;BME280;43474;46.510;6.686;2024-01-27T03:41:20;97971.13;;;4.55;100.00
57644;BME280;43474;46.510;6.686;2024-01-27T03:43:45;97968.53;;;4.63;100.00
57644;BME280;43474;46.510;6.686;2024-01-27T03:46:11;97929.63;;;4.43;100.00
57644;BME280;43474;46.510;6.686;2024-01-27T03:48:37;97963.50;;;4.95;100.00
57644;BME280;43474;46.510;6.686;2024-01-27T03:51:03;97999.66;;;5.33;100.00
57644;BME280;43474;46.510;6.686;2024-01-27T03:53:29;97937.38;;;4.77;100.00
57644;BME280;43474;46.510;6.686;2024-01-27T03:55:55;97922.75;;;4.58;100.00
57644;BME280;43474;46.510;6.686;2024-01-27T03:58:24;97972.84;;;4.73;100.00
57644;BME280;43474;46.510;6.686;2024-01-27T04:00:51;97962.94;;;4.50;100.00
57644;BME280;43474;46.510;6.686;2024-01-27T04:03:17;98011.22;;;4.65;100.00
57644;BME280;43474;46.510;6.686;2024-01-27T04:05:43;98019.38;;;4.54;100.00
57644;BME280;43474;46.510;6.686;2024-01-27T04:08:09;98000.59;;;4.33;100.00
57644;BME280;43474;46.510;6.686;2024-01-27T04:10:36;97945.00;;;3.95;100.00
57644;BME280;43474;46.510;6.686;2024-01-27T04:13:02;97986.03;;;4.04;100.00
57644;BME280;43474;46.510;6.686;2024-01-27T04:15:28;97969.25;;;3.97;100.00
57644;BME280;43474;46.510;6.686;2024-01-27T04:17:55;98026.28;;;4.21;100.00
57644;BME280;43474;46.510;6.686;2024-01-27T04:20:21;97974.94;;;3.84;100.00
57644;BME280;43474;46.510;6.686;2024-01-27T04:22:47;97966.03;;;3.69;100.00
57644;BME280;43474;46.510;6.686;2024-01-27T04:25:13;97952.44;;;3.48;100.00
57644;BME280;43474;46.510;6.686;2024-01-27T04:27:40;97965.44;;;3.57;100.00
57644;BME280;43474;46.510;6.686;2024-01-27T04:30:08;97978.66;;;3.74;100.00
57644;BME280;43474;46.510;6.686;2024-01-27T04:32:36;97989.28;;;3.72;100.00
57644;BME280;43474;46.510;6.686;2024-01-27T04:35:02;97977.53;;;3.76;100.00
57644;BME280;43474;46.510;6.686;2024-01-27T04:37:28;97968.00;;;3.75;100.00
57644;BME280;43474;46.510;6.686;2024-01-27T04:39:55;98022.59;;;4.06;100.00
57644;BME280;43474;46.510;6.686;2024-01-27T04:42:21;98013.19;;;3.95;100.00
57644;BME280;43474;46.510;6.686;2024-01-27T04:44:47;97969.63;;;3.68;100.00
57644;BME280;43474;46.510;6.686;2024-01-27T04:47:13;97962.88;;;3.66;100.00
57644;BME280;43474;46.510;6.686;2024-01-27T04:49:39;97966.47;;;3.65;100.00
57644;BME280;43474;46.510;6.686;2024-01-27T04:52:05;98043.66;;;4.14;100.00
57644;BME280;43474;46.510;6.686;2024-01-27T04:54:31;98002.91;;;4.02;100.00
57644;BME280;43474;46.510;6.686;2024-01-27T04:56:57;98006.44;;;3.93;100.00
57644;BME280;43474;46.510;6.686;2024-01-27T04:59:24;98042.31;;;4.10;100.00
57644;BME280;43474;46.510;6.686;2024-01-27T05:01:50;97992.69;;;3.91;100.00
57644;BME280;43474;46.510;6.686;2024-01-27T05:04:17;98005.41;;;4.11;100.00
57644;BME280;43474;46.510;6.686;2024-01-27T05:06:46;98015.59;;;4.14;100.00
57644;BME280;43474;46.510;6.686;2024-01-27T05:09:12;98028.56;;;4.50;100.00
57644;BME280;43474;46.510;6.686;2024-01-27T05:11:40;98022.66;;;4.48;100.00
57644;BME280;43474;46.510;6.686;2024-01-27T05:14:08;97984.91;;;4.49;100.00
57644;BME280;43474;46.510;6.686;2024-01-27T05:16:34;97980.50;;;4.58;100.00
57644;BME280;43474;46.510;6.686;2024-01-27T05:19:10;97979.78;;;4.39;100.00
57644;BME280;43474;46.510;6.686;2024-01-27T05:21:43;97977.47;;;4.36;100.00
57644;BME280;43474;46.510;6.686;2024-01-27T05:24:09;98024.38;;;4.82;100.00
57644;BME280;43474;46.510;6.686;2024-01-27T05:26:38;98002.19;;;4.76;100.00
57644;BME280;43474;46.510;6.686;2024-01-27T05:29:04;97955.72;;;4.60;100.00
57644;BME280;43474;46.510;6.686;2024-01-27T05:31:32;97983.00;;;4.68;100.00
57644;BME280;43474;46.510;6.686;2024-01-27T05:34:01;97970.31;;;4.55;100.00
57644;BME280;43474;46.510;6.686;2024-01-27T05:36:27;97983.28;;;4.56;100.00
57644;BME280;43474;46.510;6.686;2024-01-27T05:38:56;97981.97;;;4.60;100.00
57644;BME280;43474;46.510;6.686;2024-01-27T05:41:25;97987.22;;;4.60;100.00
57644;BME280;43474;46.510;6.686;2024-01-27T05:43:54;97976.66;;;4.36;100.00
57644;BME280;43474;46.510;6.686;2024-01-27T05:46:20;97997.69;;;4.52;100.00
57644;BME280;43474;46.510;6.686;2024-01-27T05:48:48;98010.31;;;4.40;100.00
57644;BME280;43474;46.510;6.686;2024-01-27T05:51:19;97986.63;;;4.24;100.00
57644;BME280;43474;46.510;6.686;2024-01-27T05:53:45;97996.47;;;3.96;100.00
57644;BME280;43474;46.510;6.686;2024-01-27T05:56:11;98046.72;;;4.09;100.00
57644;BME280;43474;46.510;6.686;2024-01-27T05:58:38;98061.75;;;3.99;100.00
57644;BME280;43474;46.510;6.686;2024-01-27T06:01:03;97997.97;;;3.47;100.00
57644;BME280;43474;46.510;6.686;2024-01-27T06:03:32;98039.91;;;3.73;100.00
57644;BME280;43474;46.510;6.686;2024-01-27T06:06:00;98052.06;;;3.74;100.00
57644;BME280;43474;46.510;6.686;2024-01-27T06:08:36;98036.84;;;3.77;100.00
57644;BME280;43474;46.510;6.686;2024-01-27T06:11:02;98021.34;;;3.84;100.00
57644;BME280;43474;46.510;6.686;2024-01-27T06:13:29;98080.41;;;4.22;100.00
57644;BME280;43474;46.510;6.686;2024-01-27T06:15:55;98013.88;;;3.71;100.00
57644;BME280;43474;46.510;6.686;2024-01-27T06:18:21;98055.91;;;3.87;100.00
57644;BME280;43474;46.510;6.686;2024-01-27T06:20:52;98072.78;;;4.03;100.00
57644;BME280;43474;46.510;6.686;2024-01-27T06:23:21;98043.97;;;3.67;100.00
57644;BME280;43474;46.510;6.686;2024-01-27T06:25:52;98045.94;;;3.65;100.00
57644;BME280;43474;46.510;6.686;2024-01-27T06:28:23;98014.09;;;3.34;100.00
57644;BME280;43474;46.510;6.686;2024-01-27T06:30:49;98017.28;;;3.46;100.00
57644;BME280;43474;46.510;6.686;2024-01-27T06:33:18;98066.91;;;3.65;100.00
57644;BME280;43474;46.510;6.686;2024-01-27T06:35:46;98019.84;;;3.37;100.00
57644;BME280;43474;46.510;6.686;2024-01-27T06:38:13;98071.25;;;3.74;100.00
57644;BME280;43474;46.510;6.686;2024-01-27T06:40:47;98054.00;;;3.72;100.00
57644;BME280;43474;46.510;6.686;2024-01-27T06:43:17;98058.63;;;3.78;100.00
57644;BME280;43474;46.510;6.686;2024-01-27T06:45:46;98046.00;;;3.73;100.00
57644;BME280;43474;46.510;6.686;2024-01-27T06:48:12;98067.75;;;3.92;100.00
57644;BME280;43474;46.510;6.686;2024-01-27T06:50:38;98061.31;;;4.12;100.00
57644;BME280;43474;46.510;6.686;2024-01-27T06:53:28;98039.13;;;3.98;100.00
57644;BME280;43474;46.510;6.686;2024-01-27T06:55:56;98045.28;;;4.15;100.00
57644;BME280;43474;46.510;6.686;2024-01-27T06:58:26;98052.00;;;4.52;100.00
57644;BME280;43474;46.510;6.686;2024-01-27T07:00:54;98049.13;;;4.63;100.00
57644;BME280;43474;46.510;6.686;2024-01-27T07:03:20;98045.94;;;4.51;100.00
57644;BME280;43474;46.510;6.686;2024-01-27T07:05:54;98059.63;;;4.71;100.00
57644;BME280;43474;46.510;6.686;2024-01-27T07:08:26;98041.81;;;4.91;100.00
57644;BME280;43474;46.510;6.686;2024-01-27T07:10:59;98044.09;;;4.78;100.00
57644;BME280;43474;46.510;6.686;2024-01-27T07:13:29;98047.53;;;4.78;100.00
57644;BME280;43474;46.510;6.686;2024-01-27T07:15:56;98110.31;;;5.06;100.00
57644;BME280;43474;46.510;6.686;2024-01-27T07:18:30;98102.94;;;5.09;100.00
57644;BME280;43474;46.510;6.686;2024-01-27T07:20:58;98055.13;;;4.98;100.00
57644;BME280;43474;46.510;6.686;2024-01-27T07:23:30;98078.00;;;5.22;100.00
57644;BME280;43474;46.510;6.686;2024-01-27T07:25:58;98094.94;;;5.35;100.00
57644;BME280;43474;46.510;6.686;2024-01-27T07:28:31;98057.28;;;5.02;100.00
57644;BME280;43474;46.510;6.686;2024-01-27T07:30:57;98089.63;;;5.11;100.00
57644;BME280;43474;46.510;6.686;2024-01-27T07:33:23;98116.84;;;5.52;100.00
57644;BME280;43474;46.510;6.686;2024-01-27T07:35:49;98125.19;;;5.39;100.00
57644;BME280;43474;46.510;6.686;2024-01-27T07:38:15;98063.34;;;5.11;100.00
57644;BME280;43474;46.510;6.686;2024-01-27T07:40:40;98052.19;;;5.09;100.00
57644;BME280;43474;46.510;6.686;2024-01-27T07:43:06;98049.56;;;5.17;100.00
57644;BME280;43474;46.510;6.686;2024-01-27T07:45:32;98069.13;;;5.14;100.00
57644;BME280;43474;46.510;6.686;2024-01-27T07:47:58;98114.81;;;5.30;100.00
57644;BME280;43474;46.510;6.686;2024-01-27T07:50:24;98106.41;;;5.26;100.00
57644;BME280;43474;46.510;6.686;2024-01-27T07:52:50;98051.50;;;4.82;100.00
57644;BME280;43474;46.510;6.686;2024-01-27T07:55:15;98075.69;;;5.02;100.00
57644;BME280;43474;46.510;6.686;2024-01-27T07:57:43;98063.69;;;5.08;100.00
57644;BME280;43474;46.510;6.686;2024-01-27T08:00:09;98054.47;;;4.96;100.00
57644;BME280;43474;46.510;6.686;2024-01-27T08:02:35;98026.59;;;5.19;100.00
57644;BME280;43474;46.510;6.686;2024-01-27T08:05:02;98052.69;;;5.21;100.00
57644;BME280;43474;46.510;6.686;2024-01-27T08:07:29;98082.81;;;5.51;100.00
57644;BME280;43474;46.510;6.686;2024-01-27T08:09:55;98063.59;;;5.58;100.00
57644;BME280;43474;46.510;6.686;2024-01-27T08:12:23;98063.41;;;5.60;100.00
57644;BME280;43474;46.510;6.686;2024-01-27T08:14:49;98079.69;;;5.63;100.00
57644;BME280;43474;46.510;6.686;2024-01-27T08:17:15;98055.69;;;5.83;100.00
57644;BME280;43474;46.510;6.686;2024-01-27T08:19:40;98045.97;;;6.08;100.00
57644;BME280;43474;46.510;6.686;2024-01-27T08:22:06;98084.59;;;6.24;100.00
57644;BME280;43474;46.510;6.686;2024-01-27T08:24:35;98033.97;;;6.05;100.00
57644;BME280;43474;46.510;6.686;2024-01-27T08:27:01;98024.94;;;6.08;100.00
57644;BME280;43474;46.510;6.686;2024-01-27T08:29:27;98058.91;;;6.42;100.00
57644;BME280;43474;46.510;6.686;2024-01-27T08:31:53;98045.47;;;6.68;100.00
57644;BME280;43474;46.510;6.686;2024-01-27T08:34:18;98067.34;;;7.08;100.00
57644;BME280;43474;46.510;6.686;2024-01-27T08:36:44;98070.03;;;7.45;100.00
57644;BME280;43474;46.510;6.686;2024-01-27T08:39:10;98055.97;;;7.53;100.00
57644;BME280;43474;46.510;6.686;2024-01-27T08:41:38;98090.09;;;8.30;100.00
57644;BME280;43474;46.510;6.686;2024-01-27T08:44:03;98084.78;;;8.68;100.00
57644;BME280;43474;46.510;6.686;2024-01-27T08:46:32;98047.31;;;8.49;100.00
57644;BME280;43474;46.510;6.686;2024-01-27T08:52:59;98100.38;;;8.63;100.00
57644;BME280;43474;46.510;6.686;2024-01-27T08:55:40;98031.41;;;8.94;100.00
57644;BME280;43474;46.510;6.686;2024-01-27T08:58:11;98039.03;;;9.03;100.00
57644;BME280;43474;46.510;6.686;2024-01-27T09:00:37;98073.19;;;9.56;100.00
57644;BME280;43474;46.510;6.686;2024-01-27T09:03:03;98036.88;;;9.28;100.00
57644;BME280;43474;46.510;6.686;2024-01-27T09:05:32;98055.53;;;9.63;100.00
57644;BME280;43474;46.510;6.686;2024-01-27T09:08:01;98059.53;;;9.16;100.00
57644;BME280;43474;46.510;6.686;2024-01-27T09:10:27;98038.53;;;8.93;100.00
57644;BME280;43474;46.510;6.686;2024-01-27T09:12:55;98070.66;;;8.61;100.00
57644;BME280;43474;46.510;6.686;2024-01-27T09:15:30;98049.75;;;8.07;100.00
57644;BME280;43474;46.510;6.686;2024-01-27T09:17:56;98059.03;;;8.02;100.00
57644;BME280;43474;46.510;6.686;2024-01-27T09:20:27;98038.03;;;7.48;100.00
57644;BME280;43474;46.510;6.686;2024-01-27T09:22:53;98057.94;;;7.74;100.00
57644;BME280;43474;46.510;6.686;2024-01-27T09:25:18;98096.66;;;7.82;100.00
57644;BME280;43474;46.510;6.686;2024-01-27T09:27:44;98039.44;;;7.13;100.00
57644;BME280;43474;46.510;6.686;2024-01-27T09:30:10;98060.78;;;7.49;100.00
57644;BME280;43474;46.510;6.686;2024-01-27T09:32:36;98067.34;;;7.54;100.00
57644;BME280;43474;46.510;6.686;2024-01-27T09:35:02;98057.47;;;7.70;100.00
57644;BME280;43474;46.510;6.686;2024-01-27T09:37:29;98064.22;;;7.73;100.00
57644;BME280;43474;46.510;6.686;2024-01-27T09:39:57;98087.88;;;8.04;100.00
57644;BME280;43474;46.510;6.686;2024-01-27T09:42:26;98017.66;;;7.80;100.00
57644;BME280;43474;46.510;6.686;2024-01-27T09:44:53;98054.84;;;8.08;100.00
57644;BME280;43474;46.510;6.686;2024-01-27T09:47:22;98045.19;;;8.15;100.00
57644;BME280;43474;46.510;6.686;2024-01-27T09:49:49;98040.84;;;8.22;100.00
57644;BME280;43474;46.510;6.686;2024-01-27T09:52:15;98040.75;;;8.31;100.00
57644;BME280;43474;46.510;6.686;2024-01-27T09:54:41;98100.00;;;8.80;100.00
57644;BME280;43474;46.510;6.686;2024-01-27T09:57:08;98045.22;;;8.45;100.00
57644;BME280;43474;46.510;6.686;2024-01-27T09:59:35;98049.25;;;8.41;100.00
57644;BME280;43474;46.510;6.686;2024-01-27T10:02:02;98054.94;;;8.15;100.00
57644;BME280;43474;46.510;6.686;2024-01-27T10:04:29;98076.31;;;8.58;100.00
57644;BME280;43474;46.510;6.686;2024-01-27T10:06:59;98085.97;;;8.65;100.00
57644;BME280;43474;46.510;6.686;2024-01-27T10:09:25;98082.31;;;8.51;100.00
57644;BME280;43474;46.510;6.686;2024-01-27T10:11:53;98101.53;;;8.60;100.00
57644;BME280;43474;46.510;6.686;2024-01-27T10:14:20;98070.22;;;8.42;100.00
57644;BME280;43474;46.510;6.686;2024-01-27T10:16:47;98080.13;;;8.55;100.00
57644;BME280;43474;46.510;6.686;2024-01-27T10:19:17;98077.31;;;8.42;100.00
57644;BME280;43474;46.510;6.686;2024-01-27T10:21:45;98083.41;;;8.72;100.00
57644;BME280;43474;46.510;6.686;2024-01-27T10:24:11;98109.28;;;8.76;100.00
57644;BME280;43474;46.510;6.686;2024-01-27T10:26:38;98061.25;;;8.58;100.00
57644;BME280;43474;46.510;6.686;2024-01-27T10:29:03;98062.91;;;8.44;100.00
57644;BME280;43474;46.510;6.686;2024-01-27T10:31:32;98073.28;;;8.31;100.00
57644;BME280;43474;46.510;6.686;2024-01-27T10:33:58;98117.50;;;8.82;100.00
57644;BME280;43474;46.510;6.686;2024-01-27T10:36:37;98063.44;;;8.40;100.00
57644;BME280;43474;46.510;6.686;2024-01-27T10:39:14;98056.81;;;8.59;100.00
57644;BME280;43474;46.510;6.686;2024-01-27T10:41:44;98054.06;;;8.82;100.00
57644;BME280;43474;46.510;6.686;2024-01-27T10:44:14;98066.81;;;8.78;100.00
57644;BME280;43474;46.510;6.686;2024-01-27T10:46:44;98067.84;;;9.13;100.00
57644;BME280;43474;46.510;6.686;2024-01-27T10:49:12;98069.03;;;9.11;100.00
57644;BME280;43474;46.510;6.686;2024-01-27T10:51:43;98044.63;;;9.30;100.00
57644;BME280;43474;46.510;6.686;2024-01-27T10:54:13;98039.44;;;9.86;100.00
57644;BME280;43474;46.510;6.686;2024-01-27T10:56:42;98036.06;;;9.71;100.00
57644;BME280;43474;46.510;6.686;2024-01-27T10:59:11;98058.75;;;9.80;100.00
57644;BME280;43474;46.510;6.686;2024-01-27T11:01:41;98082.72;;;10.49;100.00
57644;BME280;43474;46.510;6.686;2024-01-27T11:04:13;98074.56;;;10.51;100.00
57644;BME280;43474;46.510;6.686;2024-01-27T11:06:42;98033.28;;;10.76;100.00
57644;BME280;43474;46.510;6.686;2024-01-27T11:09:13;98062.75;;;11.01;100.00
57644;BME280;43474;46.510;6.686;2024-01-27T11:11:46;98034.88;;;11.38;100.00
57644;BME280;43474;46.510;6.686;2024-01-27T11:14:15;98070.81;;;11.34;100.00
57644;BME280;43474;46.510;6.686;2024-01-27T11:16:44;98048.34;;;10.69;100.00
57644;BME280;43474;46.510;6.686;2024-01-27T11:19:17;98012.13;;;10.48;100.00
57644;BME280;43474;46.510;6.686;2024-01-27T11:21:44;98044.09;;;10.75;100.00
57644;BME280;43474;46.510;6.686;2024-01-27T11:24:17;98043.56;;;10.51;100.00
57644;BME280;43474;46.510;6.686;2024-01-27T11:26:46;98046.38;;;10.84;100.00
57644;BME280;43474;46.510;6.686;2024-01-27T11:29:11;98049.00;;;11.46;100.00
57644;BME280;43474;46.510;6.686;2024-01-27T11:31:48;98004.84;;;11.25;100.00
57644;BME280;43474;46.510;6.686;2024-01-27T11:34:14;98011.91;;;10.91;100.00
57644;BME280;43474;46.510;6.686;2024-01-27T11:36:46;98030.59;;;11.31;100.00
57644;BME280;43474;46.510;6.686;2024-01-27T11:39:29;97997.25;;;10.47;100.00
57644;BME280;43474;46.510;6.686;2024-01-27T11:42:06;98038.19;;;10.38;100.00
57644;BME280;43474;46.510;6.686;2024-01-27T11:44:39;98023.97;;;10.18;100.00
57644;BME280;43474;46.510;6.686;2024-01-27T11:47:17;98008.63;;;10.13;100.00
57644;BME280;43474;46.510;6.686;2024-01-27T11:49:48;98034.44;;;11.28;100.00
57644;BME280;43474;46.510;6.686;2024-01-27T11:52:19;98065.78;;;12.32;100.00
57644;BME280;43474;46.510;6.686;2024-01-27T11:54:55;98034.47;;;12.41;100.00
57644;BME280;43474;46.510;6.686;2024-01-27T11:57:25;98013.44;;;12.26;100.00
57644;BME280;43474;46.510;6.686;2024-01-27T11:59:55;98015.78;;;12.67;100.00
57644;BME280;43474;46.510;6.686;2024-01-27T12:02:26;98051.56;;;12.78;100.00
57644;BME280;43474;46.510;6.686;2024-01-27T12:04:54;98046.47;;;13.28;100.00
57644;BME280;43474;46.510;6.686;2024-01-27T12:07:23;97992.53;;;12.50;100.00
57644;BME280;43474;46.510;6.686;2024-01-27T12:09:49;97993.25;;;11.92;100.00
57644;BME280;43474;46.510;6.686;2024-01-27T12:12:16;97982.72;;;12.50;100.00
57644;BME280;43474;46.510;6.686;2024-01-27T12:14:46;97984.06;;;12.66;100.00
57644;BME280;43474;46.510;6.686;2024-01-27T12:17:13;97975.09;;;12.60;100.00
57644;BME280;43474;46.510;6.686;2024-01-27T12:19:48;97994.69;;;12.01;100.00
57644;BME280;43474;46.510;6.686;2024-01-27T12:22:26;97979.75;;;11.41;100.00
57644;BME280;43474;46.510;6.686;2024-01-27T12:24:56;97998.81;;;11.84;100.00
57644;BME280;43474;46.510;6.686;2024-01-27T12:27:33;98044.78;;;11.84;100.00
57644;BME280;43474;46.510;6.686;2024-01-27T12:30:00;97976.50;;;11.45;100.00
57644;BME280;43474;46.510;6.686;2024-01-27T12:32:27;97998.31;;;11.27;100.00
57644;BME280;43474;46.510;6.686;2024-01-27T12:34:53;97957.44;;;10.95;100.00
57644;BME280;43474;46.510;6.686;2024-01-27T12:37:21;97978.53;;;11.43;100.00
57644;BME280;43474;46.510;6.686;2024-01-27T12:39:47;97974.88;;;11.90;100.00
57644;BME280;43474;46.510;6.686;2024-01-27T12:42:17;97963.63;;;12.02;100.00
57644;BME280;43474;46.510;6.686;2024-01-27T12:44:43;97964.22;;;11.97;100.00
57644;BME280;43474;46.510;6.686;2024-01-27T12:47:10;97975.88;;;11.30;100.00
57644;BME280;43474;46.510;6.686;2024-01-27T12:49:39;97975.81;;;11.03;100.00
57644;BME280;43474;46.510;6.686;2024-01-27T12:52:06;97962.78;;;11.28;100.00
57644;BME280;43474;46.510;6.686;2024-01-27T12:54:33;97982.03;;;11.70;100.00
57644;BME280;43474;46.510;6.686;2024-01-27T12:56:59;97962.00;;;11.87;100.00
57644;BME280;43474;46.510;6.686;2024-01-27T12:59:27;97941.38;;;11.56;100.00
57644;BME280;43474;46.510;6.686;2024-01-27T13:01:54;97939.47;;;10.91;100.00
57644;BME280;43474;46.510;6.686;2024-01-27T13:04:20;97939.28;;;10.99;100.00